sensor_id;sensor_type;location;lat;lon;timestamp;P1;durP1;ratioP1;P2;durP2;ratioP2
63005;SDS011;53704;52.532;6.426;2023-07-20T00:01:50;5.93;;;4.70;;
63005;SDS011;53704;52.532;6.426;2023-07-20T00:04:15;7.47;;;4.85;;
63005;SDS011;53704;52.532;6.426;2023-07-20T00:06:41;5.13;;;4.82;;
63005;SDS011;53704;52.532;6.426;2023-07-20T00:09:07;4.90;;;4.50;;
63005;SDS011;53704;52.532;6.426;2023-07-20T00:11:35;5.28;;;4.68;;
63005;SDS011;53704;52.532;6.426;2023-07-20T00:14:05;4.78;;;4.47;;
63005;SDS011;53704;52.532;6.426;2023-07-20T00:16:31;4.90;;;4.60;;
63005;SDS011;53704;52.532;6.426;2023-07-20T00:18:56;6.10;;;4.95;;
63005;SDS011;53704;52.532;6.426;2023-07-20T00:21:21;14.40;;;4.93;;
63005;SDS011;53704;52.532;6.426;2023-07-20T00:23:47;5.10;;;4.70;;
63005;SDS011;53704;52.532;6.426;2023-07-20T00:26:12;6.90;;;4.63;;
63005;SDS011;53704;52.532;6.426;2023-07-20T00:28:38;4.32;;;4.13;;
63005;SDS011;53704;52.532;6.426;2023-07-20T00:31:04;7.22;;;5.10;;
63005;SDS011;53704;52.532;6.426;2023-07-20T00:33:29;5.28;;;4.78;;
63005;SDS011;53704;52.532;6.426;2023-07-20T00:35:55;5.97;;;5.57;;
63005;SDS011;53704;52.532;6.426;2023-07-20T00:38:21;5.63;;;5.22;;
63005;SDS011;53704;52.532;6.426;2023-07-20T00:40:46;8.55;;;5.70;;
63005;SDS011;53704;52.532;6.426;2023-07-20T00:43:13;8.10;;;5.45;;
63005;SDS011;53704;52.532;6.426;2023-07-20T00:45:38;4.95;;;4.65;;
63005;SDS011;53704;52.532;6.426;2023-07-20T00:48:04;4.47;;;4.18;;
63005;SDS011;53704;52.532;6.426;2023-07-20T00:50:31;5.65;;;5.10;;
63005;SDS011;53704;52.532;6.426;2023-07-20T00:52:57;4.38;;;4.05;;
63005;SDS011;53704;52.532;6.426;2023-07-20T00:55:23;5.20;;;4.78;;
63005;SDS011;53704;52.532;6.426;2023-07-20T00:57:50;4.75;;;4.38;;
63005;SDS011;53704;52.532;6.426;2023-07-20T01:00:16;5.22;;;4.82;;
63005;SDS011;53704;52.532;6.426;2023-07-20T01:02:43;4.72;;;4.43;;
63005;SDS011;53704;52.532;6.426;2023-07-20T01:05:08;4.03;;;3.92;;
63005;SDS011;53704;52.532;6.426;2023-07-20T01:07:39;12.93;;;4.35;;
63005;SDS011;53704;52.532;6.426;2023-07-20T01:10:19;5.20;;;4.70;;
63005;SDS011;53704;52.532;6.426;2023-07-20T01:12:53;6.13;;;5.65;;
63005;SDS011;53704;52.532;6.426;2023-07-20T01:15:20;5.60;;;5.20;;
63005;SDS011;53704;52.532;6.426;2023-07-20T01:17:46;7.80;;;4.93;;
63005;SDS011;53704;52.532;6.426;2023-07-20T01:20:15;5.60;;;5.30;;
63005;SDS011;53704;52.532;6.426;2023-07-20T01:27:51;4.63;;;4.22;;
63005;SDS011;53704;52.532;6.426;2023-07-20T01:33:20;4.65;;;4.35;;
63005;SDS011;53704;52.532;6.426;2023-07-20T01:35:58;4.78;;;4.40;;
63005;SDS011;53704;52.532;6.426;2023-07-20T01:38:25;4.40;;;4.10;;
63005;SDS011;53704;52.532;6.426;2023-07-20T01:40:51;4.68;;;4.38;;
63005;SDS011;53704;52.532;6.426;2023-07-20T01:43:17;10.10;;;4.43;;
63005;SDS011;53704;52.532;6.426;2023-07-20T01:45:43;3.78;;;3.58;;
63005;SDS011;53704;52.532;6.426;2023-07-20T01:48:09;5.00;;;4.60;;
63005;SDS011;53704;52.532;6.426;2023-07-20T01:50:34;4.88;;;4.57;;
63005;SDS011;53704;52.532;6.426;2023-07-20T01:53:00;4.10;;;4.00;;
63005;SDS011;53704;52.532;6.426;2023-07-20T01:55:26;3.92;;;3.72;;
63005;SDS011;53704;52.532;6.426;2023-07-20T01:57:52;6.25;;;4.53;;
63005;SDS011;53704;52.532;6.426;2023-07-20T02:00:18;3.95;;;3.75;;
63005;SDS011;53704;52.532;6.426;2023-07-20T02:02:46;4.50;;;4.10;;
63005;SDS011;53704;52.532;6.426;2023-07-20T02:05:12;4.82;;;4.10;;
63005;SDS011;53704;52.532;6.426;2023-07-20T02:07:37;4.95;;;4.18;;
63005;SDS011;53704;52.532;6.426;2023-07-20T02:10:03;4.82;;;4.53;;
63005;SDS011;53704;52.532;6.426;2023-07-20T02:12:29;5.13;;;4.63;;
63005;SDS011;53704;52.532;6.426;2023-07-20T02:14:54;5.90;;;5.50;;
63005;SDS011;53704;52.532;6.426;2023-07-20T02:17:19;7.32;;;4.47;;
63005;SDS011;53704;52.532;6.426;2023-07-20T02:19:45;5.07;;;4.68;;
63005;SDS011;53704;52.532;6.426;2023-07-20T02:22:10;5.45;;;4.95;;
63005;SDS011;53704;52.532;6.426;2023-07-20T02:24:36;5.22;;;4.35;;
63005;SDS011;53704;52.532;6.426;2023-07-20T02:27:01;7.10;;;4.55;;
63005;SDS011;53704;52.532;6.426;2023-07-20T02:29:29;4.43;;;4.22;;
63005;SDS011;53704;52.532;6.426;2023-07-20T02:31:54;4.72;;;4.43;;
63005;SDS011;53704;52.532;6.426;2023-07-20T02:34:20;5.22;;;4.85;;
63005;SDS011;53704;52.532;6.426;2023-07-20T02:36:45;4.60;;;4.40;;
63005;SDS011;53704;52.532;6.426;2023-07-20T02:39:11;4.03;;;3.83;;
63005;SDS011;53704;52.532;6.426;2023-07-20T02:41:36;4.32;;;4.03;;
63005;SDS011;53704;52.532;6.426;2023-07-20T02:44:02;5.40;;;4.18;;
63005;SDS011;53704;52.532;6.426;2023-07-20T02:46:28;4.90;;;4.35;;
63005;SDS011;53704;52.532;6.426;2023-07-20T02:48:55;4.38;;;3.85;;
63005;SDS011;53704;52.532;6.426;2023-07-20T02:51:20;5.10;;;4.80;;
63005;SDS011;53704;52.532;6.426;2023-07-20T02:53:46;4.05;;;3.85;;
63005;SDS011;53704;52.532;6.426;2023-07-20T02:56:12;4.30;;;4.10;;
63005;SDS011;53704;52.532;6.426;2023-07-20T02:58:39;3.97;;;3.67;;
63005;SDS011;53704;52.532;6.426;2023-07-20T03:01:08;4.28;;;3.97;;
63005;SDS011;53704;52.532;6.426;2023-07-20T03:03:36;3.80;;;3.50;;
63005;SDS011;53704;52.532;6.426;2023-07-20T03:06:04;4.40;;;4.10;;
63005;SDS011;53704;52.532;6.426;2023-07-20T03:08:30;4.65;;;4.35;;
63005;SDS011;53704;52.532;6.426;2023-07-20T03:10:55;4.10;;;3.90;;
63005;SDS011;53704;52.532;6.426;2023-07-20T03:13:21;4.45;;;3.90;;
63005;SDS011;53704;52.532;6.426;2023-07-20T03:15:46;3.83;;;3.70;;
63005;SDS011;53704;52.532;6.426;2023-07-20T03:18:12;7.65;;;3.85;;
63005;SDS011;53704;52.532;6.426;2023-07-20T03:20:37;4.80;;;4.20;;
63005;SDS011;53704;52.532;6.426;2023-07-20T03:23:03;4.00;;;3.70;;
63005;SDS011;53704;52.532;6.426;2023-07-20T03:25:28;3.35;;;3.15;;
63005;SDS011;53704;52.532;6.426;2023-07-20T03:27:54;4.03;;;3.83;;
63005;SDS011;53704;52.532;6.426;2023-07-20T03:30:19;4.05;;;3.72;;
63005;SDS011;53704;52.532;6.426;2023-07-20T03:32:45;4.20;;;3.90;;
63005;SDS011;53704;52.532;6.426;2023-07-20T03:35:10;4.43;;;4.13;;
63005;SDS011;53704;52.532;6.426;2023-07-20T03:37:36;4.10;;;3.78;;
63005;SDS011;53704;52.532;6.426;2023-07-20T03:40:04;4.55;;;4.35;;
63005;SDS011;53704;52.532;6.426;2023-07-20T03:42:32;4.43;;;4.13;;
63005;SDS011;53704;52.532;6.426;2023-07-20T03:44:57;5.25;;;4.85;;
63005;SDS011;53704;52.532;6.426;2023-07-20T03:47:23;7.38;;;5.25;;
63005;SDS011;53704;52.532;6.426;2023-07-20T03:49:49;18.27;;;5.53;;
63005;SDS011;53704;52.532;6.426;2023-07-20T03:52:14;5.13;;;4.43;;
63005;SDS011;53704;52.532;6.426;2023-07-20T03:54:40;4.75;;;4.45;;
63005;SDS011;53704;52.532;6.426;2023-07-20T03:57:05;5.25;;;4.35;;
63005;SDS011;53704;52.532;6.426;2023-07-20T03:59:31;5.07;;;4.13;;
63005;SDS011;53704;52.532;6.426;2023-07-20T04:01:56;4.43;;;4.22;;
63005;SDS011;53704;52.532;6.426;2023-07-20T04:04:22;4.95;;;4.35;;
63005;SDS011;53704;52.532;6.426;2023-07-20T04:06:47;4.03;;;3.78;;
63005;SDS011;53704;52.532;6.426;2023-07-20T04:09:12;7.00;;;4.07;;
63005;SDS011;53704;52.532;6.426;2023-07-20T04:11:38;3.92;;;3.75;;
63005;SDS011;53704;52.532;6.426;2023-07-20T04:14:04;4.07;;;3.90;;
63005;SDS011;53704;52.532;6.426;2023-07-20T04:16:29;4.03;;;3.83;;
63005;SDS011;53704;52.532;6.426;2023-07-20T04:18:55;4.22;;;4.00;;
63005;SDS011;53704;52.532;6.426;2023-07-20T04:21:21;5.53;;;3.92;;
63005;SDS011;53704;52.532;6.426;2023-07-20T04:23:47;5.25;;;3.63;;
63005;SDS011;53704;52.532;6.426;2023-07-20T04:26:12;5.22;;;4.72;;
63005;SDS011;53704;52.532;6.426;2023-07-20T04:28:40;4.30;;;4.03;;
63005;SDS011;53704;52.532;6.426;2023-07-20T04:31:13;4.22;;;4.03;;
63005;SDS011;53704;52.532;6.426;2023-07-20T04:33:39;4.07;;;3.88;;
63005;SDS011;53704;52.532;6.426;2023-07-20T04:36:05;4.70;;;3.97;;
63005;SDS011;53704;52.532;6.426;2023-07-20T04:38:32;4.07;;;3.88;;
63005;SDS011;53704;52.532;6.426;2023-07-20T04:40:57;7.70;;;5.30;;
63005;SDS011;53704;52.532;6.426;2023-07-20T04:43:26;4.78;;;4.47;;
63005;SDS011;53704;52.532;6.426;2023-07-20T04:45:54;5.18;;;4.95;;
63005;SDS011;53704;52.532;6.426;2023-07-20T04:48:19;4.18;;;4.05;;
63005;SDS011;53704;52.532;6.426;2023-07-20T04:50:45;5.50;;;4.75;;
63005;SDS011;53704;52.532;6.426;2023-07-20T04:53:11;5.68;;;5.38;;
63005;SDS011;53704;52.532;6.426;2023-07-20T04:55:37;5.72;;;5.22;;
63005;SDS011;53704;52.532;6.426;2023-07-20T04:58:04;6.60;;;5.40;;
63005;SDS011;53704;52.532;6.426;2023-07-20T05:00:30;6.45;;;5.65;;
63005;SDS011;53704;52.532;6.426;2023-07-20T05:02:57;5.80;;;5.50;;
63005;SDS011;53704;52.532;6.426;2023-07-20T05:05:22;5.70;;;5.50;;
63005;SDS011;53704;52.532;6.426;2023-07-20T05:07:48;6.30;;;5.90;;
63005;SDS011;53704;52.532;6.426;2023-07-20T05:10:13;7.97;;;5.88;;
63005;SDS011;53704;52.532;6.426;2023-07-20T05:12:39;7.63;;;5.75;;
63005;SDS011;53704;52.532;6.426;2023-07-20T05:15:04;5.90;;;5.50;;
63005;SDS011;53704;52.532;6.426;2023-07-20T05:17:30;6.00;;;5.65;;
63005;SDS011;53704;52.532;6.426;2023-07-20T05:19:56;6.45;;;5.97;;
63005;SDS011;53704;52.532;6.426;2023-07-20T05:22:21;7.57;;;6.65;;
63005;SDS011;53704;52.532;6.426;2023-07-20T05:24:47;6.47;;;6.07;;
63005;SDS011;53704;52.532;6.426;2023-07-20T05:27:12;14.52;;;7.28;;
63005;SDS011;53704;52.532;6.426;2023-07-20T05:29:37;7.13;;;6.75;;
63005;SDS011;53704;52.532;6.426;2023-07-20T05:32:08;7.38;;;6.47;;
63005;SDS011;53704;52.532;6.426;2023-07-20T05:34:34;7.35;;;6.70;;
63005;SDS011;53704;52.532;6.426;2023-07-20T05:37:00;7.57;;;6.97;;
63005;SDS011;53704;52.532;6.426;2023-07-20T05:39:25;7.25;;;6.65;;
63005;SDS011;53704;52.532;6.426;2023-07-20T05:41:51;6.68;;;6.20;;
63005;SDS011;53704;52.532;6.426;2023-07-20T05:44:16;7.20;;;6.45;;
63005;SDS011;53704;52.532;6.426;2023-07-20T05:46:41;10.63;;;6.38;;
63005;SDS011;53704;52.532;6.426;2023-07-20T05:49:07;8.05;;;5.65;;
63005;SDS011;53704;52.532;6.426;2023-07-20T05:51:32;6.20;;;5.85;;
63005;SDS011;53704;52.532;6.426;2023-07-20T05:53:58;10.55;;;6.18;;
63005;SDS011;53704;52.532;6.426;2023-07-20T05:56:23;10.30;;;7.25;;
63005;SDS011;53704;52.532;6.426;2023-07-20T05:58:49;6.53;;;6.05;;
63005;SDS011;53704;52.532;6.426;2023-07-20T06:01:15;6.47;;;5.80;;
63005;SDS011;53704;52.532;6.426;2023-07-20T06:03:40;6.88;;;6.05;;
63005;SDS011;53704;52.532;6.426;2023-07-20T06:06:05;6.88;;;6.13;;
63005;SDS011;53704;52.532;6.426;2023-07-20T06:08:31;6.30;;;5.80;;
63005;SDS011;53704;52.532;6.426;2023-07-20T06:10:57;8.45;;;5.32;;
63005;SDS011;53704;52.532;6.426;2023-07-20T06:13:22;5.65;;;5.35;;
63005;SDS011;53704;52.532;6.426;2023-07-20T06:15:48;4.50;;;4.28;;
63005;SDS011;53704;52.532;6.426;2023-07-20T06:18:14;9.38;;;4.50;;
63005;SDS011;53704;52.532;6.426;2023-07-20T06:20:39;13.02;;;5.38;;
63005;SDS011;53704;52.532;6.426;2023-07-20T06:23:05;11.40;;;5.70;;
63005;SDS011;53704;52.532;6.426;2023-07-20T06:25:30;6.60;;;4.63;;
63005;SDS011;53704;52.532;6.426;2023-07-20T06:27:56;4.95;;;4.22;;
63005;SDS011;53704;52.532;6.426;2023-07-20T06:30:22;7.10;;;4.35;;
63005;SDS011;53704;52.532;6.426;2023-07-20T06:32:48;4.75;;;4.30;;
63005;SDS011;53704;52.532;6.426;2023-07-20T06:35:13;3.92;;;3.35;;
63005;SDS011;53704;52.532;6.426;2023-07-20T06:37:39;4.82;;;4.00;;
63005;SDS011;53704;52.532;6.426;2023-07-20T06:40:05;6.72;;;3.97;;
63005;SDS011;53704;52.532;6.426;2023-07-20T06:42:34;3.40;;;3.20;;
63005;SDS011;53704;52.532;6.426;2023-07-20T06:44:59;3.65;;;3.40;;
63005;SDS011;53704;52.532;6.426;2023-07-20T06:47:25;5.50;;;3.72;;
63005;SDS011;53704;52.532;6.426;2023-07-20T06:49:50;3.30;;;3.17;;
63005;SDS011;53704;52.532;6.426;2023-07-20T06:52:16;4.60;;;2.80;;
63005;SDS011;53704;52.532;6.426;2023-07-20T06:54:42;9.70;;;3.17;;
63005;SDS011;53704;52.532;6.426;2023-07-20T06:57:07;6.70;;;3.25;;
63005;SDS011;53704;52.532;6.426;2023-07-20T06:59:33;5.65;;;3.17;;
63005;SDS011;53704;52.532;6.426;2023-07-20T07:01:58;3.60;;;1.98;;
63005;SDS011;53704;52.532;6.426;2023-07-20T07:04:24;3.78;;;2.30;;
63005;SDS011;53704;52.532;6.426;2023-07-20T07:06:50;2.47;;;2.05;;
63005;SDS011;53704;52.532;6.426;2023-07-20T07:09:15;2.10;;;2.00;;
63005;SDS011;53704;52.532;6.426;2023-07-20T07:11:40;4.50;;;2.30;;
63005;SDS011;53704;52.532;6.426;2023-07-20T07:14:06;1.42;;;1.33;;
63005;SDS011;53704;52.532;6.426;2023-07-20T07:16:31;3.63;;;1.90;;
63005;SDS011;53704;52.532;6.426;2023-07-20T07:18:57;6.00;;;1.55;;
63005;SDS011;53704;52.532;6.426;2023-07-20T07:21:23;2.33;;;1.70;;
63005;SDS011;53704;52.532;6.426;2023-07-20T07:23:48;4.15;;;1.73;;
63005;SDS011;53704;52.532;6.426;2023-07-20T07:26:14;11.32;;;1.63;;
63005;SDS011;53704;52.532;6.426;2023-07-20T07:28:40;6.32;;;1.48;;
63005;SDS011;53704;52.532;6.426;2023-07-20T07:31:05;1.95;;;1.05;;
63005;SDS011;53704;52.532;6.426;2023-07-20T07:33:31;3.35;;;1.20;;
63005;SDS011;53704;52.532;6.426;2023-07-20T07:35:57;2.47;;;0.85;;
63005;SDS011;53704;52.532;6.426;2023-07-20T07:38:22;4.20;;;1.08;;
63005;SDS011;53704;52.532;6.426;2023-07-20T07:40:48;2.42;;;1.00;;
63005;SDS011;53704;52.532;6.426;2023-07-20T07:43:13;1.95;;;0.95;;
63005;SDS011;53704;52.532;6.426;2023-07-20T07:45:39;1.02;;;0.98;;
63005;SDS011;53704;52.532;6.426;2023-07-20T07:48:05;3.40;;;1.27;;
63005;SDS011;53704;52.532;6.426;2023-07-20T07:50:31;1.63;;;1.25;;
63005;SDS011;53704;52.532;6.426;2023-07-20T07:52:59;1.10;;;1.02;;
63005;SDS011;53704;52.532;6.426;2023-07-20T07:55:25;7.35;;;1.77;;
63005;SDS011;53704;52.532;6.426;2023-07-20T07:57:53;1.80;;;0.80;;
63005;SDS011;53704;52.532;6.426;2023-07-20T08:00:19;1.25;;;1.13;;
63005;SDS011;53704;52.532;6.426;2023-07-20T08:02:45;1.55;;;0.95;;
63005;SDS011;53704;52.532;6.426;2023-07-20T08:05:13;1.85;;;0.93;;
63005;SDS011;53704;52.532;6.426;2023-07-20T08:07:38;1.83;;;1.05;;
63005;SDS011;53704;52.532;6.426;2023-07-20T08:10:04;4.90;;;1.08;;
63005;SDS011;53704;52.532;6.426;2023-07-20T08:12:31;1.65;;;0.77;;
63005;SDS011;53704;52.532;6.426;2023-07-20T08:14:56;2.80;;;1.02;;
63005;SDS011;53704;52.532;6.426;2023-07-20T08:17:22;3.22;;;0.90;;
63005;SDS011;53704;52.532;6.426;2023-07-20T08:19:48;1.65;;;1.17;;
63005;SDS011;53704;52.532;6.426;2023-07-20T08:22:13;3.20;;;1.17;;
63005;SDS011;53704;52.532;6.426;2023-07-20T08:24:39;1.98;;;0.90;;
63005;SDS011;53704;52.532;6.426;2023-07-20T08:27:05;2.85;;;0.90;;
63005;SDS011;53704;52.532;6.426;2023-07-20T08:29:31;2.67;;;2.17;;
63005;SDS011;53704;52.532;6.426;2023-07-20T08:31:56;2.47;;;0.90;;
63005;SDS011;53704;52.532;6.426;2023-07-20T08:34:22;2.00;;;0.90;;
63005;SDS011;53704;52.532;6.426;2023-07-20T08:36:47;3.20;;;0.90;;
63005;SDS011;53704;52.532;6.426;2023-07-20T08:39:13;1.75;;;0.90;;
63005;SDS011;53704;52.532;6.426;2023-07-20T08:41:38;3.78;;;0.88;;
63005;SDS011;53704;52.532;6.426;2023-07-20T08:44:06;0.60;;;0.60;;
63005;SDS011;53704;52.532;6.426;2023-07-20T08:46:32;0.68;;;0.68;;
63005;SDS011;53704;52.532;6.426;2023-07-20T08:48:59;1.38;;;0.70;;
63005;SDS011;53704;52.532;6.426;2023-07-20T08:51:27;3.95;;;1.30;;
63005;SDS011;53704;52.532;6.426;2023-07-20T08:53:54;1.70;;;0.80;;
63005;SDS011;53704;52.532;6.426;2023-07-20T08:56:19;3.67;;;0.98;;
63005;SDS011;53704;52.532;6.426;2023-07-20T08:58:46;1.67;;;0.90;;
63005;SDS011;53704;52.532;6.426;2023-07-20T09:01:12;7.75;;;0.73;;
63005;SDS011;53704;52.532;6.426;2023-07-20T09:03:39;0.80;;;0.80;;
63005;SDS011;53704;52.532;6.426;2023-07-20T09:06:08;1.83;;;0.57;;
63005;SDS011;53704;52.532;6.426;2023-07-20T09:08:33;0.70;;;0.70;;
63005;SDS011;53704;52.532;6.426;2023-07-20T09:11:03;1.10;;;0.98;;
63005;SDS011;53704;52.532;6.426;2023-07-20T09:13:29;0.80;;;0.80;;
63005;SDS011;53704;52.532;6.426;2023-07-20T09:15:54;0.68;;;0.68;;
63005;SDS011;53704;52.532;6.426;2023-07-20T09:18:27;0.98;;;0.70;;
63005;SDS011;53704;52.532;6.426;2023-07-20T09:21:03;0.80;;;0.70;;
63005;SDS011;53704;52.532;6.426;2023-07-20T09:23:32;2.75;;;0.82;;
63005;SDS011;53704;52.532;6.426;2023-07-20T09:26:10;1.52;;;0.88;;
63005;SDS011;53704;52.532;6.426;2023-07-20T09:28:47;4.38;;;0.90;;
63005;SDS011;53704;52.532;6.426;2023-07-20T09:31:18;17.75;;;3.47;;
63005;SDS011;53704;52.532;6.426;2023-07-20T09:33:45;6.22;;;2.00;;
63005;SDS011;53704;52.532;6.426;2023-07-20T09:36:11;5.07;;;1.85;;
63005;SDS011;53704;52.532;6.426;2023-07-20T09:38:37;2.17;;;1.33;;
63005;SDS011;53704;52.532;6.426;2023-07-20T09:41:06;3.90;;;1.50;;
63005;SDS011;53704;52.532;6.426;2023-07-20T09:43:40;3.38;;;1.75;;
63005;SDS011;53704;52.532;6.426;2023-07-20T09:46:06;3.88;;;1.27;;
63005;SDS011;53704;52.532;6.426;2023-07-20T09:48:32;1.88;;;1.35;;
63005;SDS011;53704;52.532;6.426;2023-07-20T09:50:58;2.47;;;1.30;;
63005;SDS011;53704;52.532;6.426;2023-07-20T09:53:24;1.95;;;1.52;;
63005;SDS011;53704;52.532;6.426;2023-07-20T09:55:51;1.38;;;1.27;;
63005;SDS011;53704;52.532;6.426;2023-07-20T09:58:18;1.58;;;1.40;;
63005;SDS011;53704;52.532;6.426;2023-07-20T10:00:44;2.65;;;1.45;;
63005;SDS011;53704;52.532;6.426;2023-07-20T10:03:19;6.32;;;1.55;;
63005;SDS011;53704;52.532;6.426;2023-07-20T10:05:56;3.10;;;1.38;;
63005;SDS011;53704;52.532;6.426;2023-07-20T10:08:28;2.40;;;1.42;;
63005;SDS011;53704;52.532;6.426;2023-07-20T10:10:55;2.20;;;1.63;;
63005;SDS011;53704;52.532;6.426;2023-07-20T10:13:26;1.35;;;1.25;;
63005;SDS011;53704;52.532;6.426;2023-07-20T10:16:01;2.88;;;1.60;;
63005;SDS011;53704;52.532;6.426;2023-07-20T10:18:29;2.22;;;2.00;;
63005;SDS011;53704;52.532;6.426;2023-07-20T10:20:59;2.30;;;1.50;;
63005;SDS011;53704;52.532;6.426;2023-07-20T10:23:26;2.47;;;1.65;;
63005;SDS011;53704;52.532;6.426;2023-07-20T10:25:55;2.05;;;1.63;;
63005;SDS011;53704;52.532;6.426;2023-07-20T10:28:22;5.32;;;0.88;;
63005;SDS011;53704;52.532;6.426;2023-07-20T10:30:49;2.17;;;0.93;;
63005;SDS011;53704;52.532;6.426;2023-07-20T10:33:15;2.72;;;1.00;;
63005;SDS011;53704;52.532;6.426;2023-07-20T10:35:55;1.27;;;0.90;;
63005;SDS011;53704;52.532;6.426;2023-07-20T10:43:46;3.20;;;0.90;;
63005;SDS011;53704;52.532;6.426;2023-07-20T10:46:13;1.13;;;0.77;;
63005;SDS011;53704;52.532;6.426;2023-07-20T10:51:30;0.75;;;0.75;;
63005;SDS011;53704;52.532;6.426;2023-07-20T10:56:42;0.63;;;0.60;;
63005;SDS011;53704;52.532;6.426;2023-07-20T10:59:20;0.60;;;0.60;;
63005;SDS011;53704;52.532;6.426;2023-07-20T11:02:05;2.65;;;0.60;;
63005;SDS011;53704;52.532;6.426;2023-07-20T11:04:39;0.40;;;0.40;;
63005;SDS011;53704;52.532;6.426;2023-07-20T11:07:05;0.25;;;0.25;;
63005;SDS011;53704;52.532;6.426;2023-07-20T11:09:34;0.30;;;0.30;;
63005;SDS011;53704;52.532;6.426;2023-07-20T11:12:10;0.40;;;0.40;;
63005;SDS011;53704;52.532;6.426;2023-07-20T11:14:54;0.40;;;0.40;;
63005;SDS011;53704;52.532;6.426;2023-07-20T11:17:22;0.20;;;0.20;;
63005;SDS011;53704;52.532;6.426;2023-07-20T11:20:01;1.47;;;0.40;;
63005;SDS011;53704;52.532;6.426;2023-07-20T11:22:28;0.57;;;0.45;;
63005;SDS011;53704;52.532;6.426;2023-07-20T11:24:56;0.93;;;0.43;;
63005;SDS011;53704;52.532;6.426;2023-07-20T11:27:23;0.82;;;0.57;;
63005;SDS011;53704;52.532;6.426;2023-07-20T11:29:48;1.02;;;0.68;;
63005;SDS011;53704;52.532;6.426;2023-07-20T11:32:21;0.50;;;0.50;;
63005;SDS011;53704;52.532;6.426;2023-07-20T11:34:48;5.90;;;0.57;;
63005;SDS011;53704;52.532;6.426;2023-07-20T11:37:14;0.50;;;0.50;;
63005;SDS011;53704;52.532;6.426;2023-07-20T11:39:39;0.60;;;0.60;;
63005;SDS011;53704;52.532;6.426;2023-07-20T11:42:05;0.43;;;0.32;;
63005;SDS011;53704;52.532;6.426;2023-07-20T11:44:31;1.60;;;1.02;;
63005;SDS011;53704;52.532;6.426;2023-07-20T11:47:01;3.13;;;0.68;;
63005;SDS011;53704;52.532;6.426;2023-07-20T11:49:29;0.40;;;0.40;;
63005;SDS011;53704;52.532;6.426;2023-07-20T11:51:55;0.77;;;0.60;;
63005;SDS011;53704;52.532;6.426;2023-07-20T11:54:22;0.75;;;0.57;;
63005;SDS011;53704;52.532;6.426;2023-07-20T11:56:53;3.08;;;0.55;;
63005;SDS011;53704;52.532;6.426;2023-07-20T11:59:20;2.42;;;0.60;;
63005;SDS011;53704;52.532;6.426;2023-07-20T12:01:45;1.58;;;0.52;;
63005;SDS011;53704;52.532;6.426;2023-07-20T12:04:11;9.32;;;0.60;;
63005;SDS011;53704;52.532;6.426;2023-07-20T12:06:37;1.05;;;0.68;;
63005;SDS011;53704;52.532;6.426;2023-07-20T12:09:02;0.77;;;0.60;;
63005;SDS011;53704;52.532;6.426;2023-07-20T12:13:57;1.25;;;0.57;;
63005;SDS011;53704;52.532;6.426;2023-07-20T12:16:26;4.53;;;1.13;;
63005;SDS011;53704;52.532;6.426;2023-07-20T12:18:59;0.85;;;0.52;;
63005;SDS011;53704;52.532;6.426;2023-07-20T12:21:28;1.08;;;0.68;;
63005;SDS011;53704;52.532;6.426;2023-07-20T12:23:55;0.57;;;0.55;;
63005;SDS011;53704;52.532;6.426;2023-07-20T12:26:22;0.68;;;0.65;;
63005;SDS011;53704;52.532;6.426;2023-07-20T12:28:49;0.60;;;0.60;;
63005;SDS011;53704;52.532;6.426;2023-07-20T12:31:16;0.70;;;0.70;;
63005;SDS011;53704;52.532;6.426;2023-07-20T12:33:42;0.70;;;0.68;;
63005;SDS011;53704;52.532;6.426;2023-07-20T12:36:08;0.98;;;0.88;;
63005;SDS011;53704;52.532;6.426;2023-07-20T12:38:34;2.00;;;0.60;;
63005;SDS011;53704;52.532;6.426;2023-07-20T12:41:00;4.70;;;0.73;;
63005;SDS011;53704;52.532;6.426;2023-07-20T12:43:27;2.65;;;0.63;;
63005;SDS011;53704;52.532;6.426;2023-07-20T12:45:53;1.23;;;0.70;;
63005;SDS011;53704;52.532;6.426;2023-07-20T12:48:19;1.33;;;0.75;;
63005;SDS011;53704;52.532;6.426;2023-07-20T12:50:45;0.52;;;0.52;;
63005;SDS011;53704;52.532;6.426;2023-07-20T12:53:11;1.08;;;0.57;;
63005;SDS011;53704;52.532;6.426;2023-07-20T12:55:37;2.20;;;0.57;;
63005;SDS011;53704;52.532;6.426;2023-07-20T12:58:04;1.35;;;0.80;;
63005;SDS011;53704;52.532;6.426;2023-07-20T13:00:30;4.97;;;0.77;;
63005;SDS011;53704;52.532;6.426;2023-07-20T13:02:56;1.27;;;0.60;;
63005;SDS011;53704;52.532;6.426;2023-07-20T13:05:22;0.55;;;0.40;;
63005;SDS011;53704;52.532;6.426;2023-07-20T13:07:48;0.52;;;0.52;;
63005;SDS011;53704;52.532;6.426;2023-07-20T13:10:13;1.45;;;0.70;;
63005;SDS011;53704;52.532;6.426;2023-07-20T13:12:39;1.10;;;0.60;;
63005;SDS011;53704;52.532;6.426;2023-07-20T13:15:05;0.85;;;0.50;;
63005;SDS011;53704;52.532;6.426;2023-07-20T13:17:32;3.30;;;0.45;;
63005;SDS011;53704;52.532;6.426;2023-07-20T13:20:02;2.72;;;0.70;;
63005;SDS011;53704;52.532;6.426;2023-07-20T13:22:32;2.28;;;0.50;;
63005;SDS011;53704;52.532;6.426;2023-07-20T13:24:58;0.65;;;0.32;;
63005;SDS011;53704;52.532;6.426;2023-07-20T13:27:23;5.18;;;0.65;;
63005;SDS011;53704;52.532;6.426;2023-07-20T13:29:51;0.70;;;0.70;;
63005;SDS011;53704;52.532;6.426;2023-07-20T13:32:18;0.25;;;0.20;;
63005;SDS011;53704;52.532;6.426;2023-07-20T13:34:44;0.73;;;0.40;;
63005;SDS011;53704;52.532;6.426;2023-07-20T13:37:10;3.33;;;0.60;;
63005;SDS011;53704;52.532;6.426;2023-07-20T13:39:36;3.85;;;0.50;;
63005;SDS011;53704;52.532;6.426;2023-07-20T13:42:02;3.22;;;0.40;;
63005;SDS011;53704;52.532;6.426;2023-07-20T13:44:30;0.88;;;0.50;;
63005;SDS011;53704;52.532;6.426;2023-07-20T13:46:56;1.42;;;0.50;;
63005;SDS011;53704;52.532;6.426;2023-07-20T13:49:22;0.50;;;0.40;;
63005;SDS011;53704;52.532;6.426;2023-07-20T13:51:47;0.57;;;0.57;;
63005;SDS011;53704;52.532;6.426;2023-07-20T13:54:13;0.50;;;0.50;;
63005;SDS011;53704;52.532;6.426;2023-07-20T13:56:38;0.40;;;0.40;;
63005;SDS011;53704;52.532;6.426;2023-07-20T13:59:03;1.17;;;0.60;;
63005;SDS011;53704;52.532;6.426;2023-07-20T14:01:29;0.50;;;0.50;;
63005;SDS011;53704;52.532;6.426;2023-07-20T14:03:57;0.50;;;0.50;;
63005;SDS011;53704;52.532;6.426;2023-07-20T14:06:23;0.40;;;0.40;;
63005;SDS011;53704;52.532;6.426;2023-07-20T14:08:49;2.15;;;0.50;;
63005;SDS011;53704;52.532;6.426;2023-07-20T14:11:15;1.08;;;0.52;;
63005;SDS011;53704;52.532;6.426;2023-07-20T14:13:41;0.73;;;0.50;;
63005;SDS011;53704;52.532;6.426;2023-07-20T14:16:06;0.50;;;0.50;;
63005;SDS011;53704;52.532;6.426;2023-07-20T14:18:32;0.40;;;0.40;;
63005;SDS011;53704;52.532;6.426;2023-07-20T14:20:58;0.77;;;0.50;;
63005;SDS011;53704;52.532;6.426;2023-07-20T14:23:23;0.50;;;0.47;;
63005;SDS011;53704;52.532;6.426;2023-07-20T14:25:48;0.70;;;0.70;;
63005;SDS011;53704;52.532;6.426;2023-07-20T14:28:15;0.70;;;0.43;;
63005;SDS011;53704;52.532;6.426;2023-07-20T14:30:41;0.65;;;0.63;;
63005;SDS011;53704;52.532;6.426;2023-07-20T14:33:06;0.93;;;0.50;;
63005;SDS011;53704;52.532;6.426;2023-07-20T14:35:32;3.72;;;0.77;;
63005;SDS011;53704;52.532;6.426;2023-07-20T14:37:59;0.60;;;0.60;;
63005;SDS011;53704;52.532;6.426;2023-07-20T14:40:24;0.98;;;0.88;;
63005;SDS011;53704;52.532;6.426;2023-07-20T14:42:50;0.25;;;0.20;;
63005;SDS011;53704;52.532;6.426;2023-07-20T14:45:17;2.55;;;0.30;;
63005;SDS011;53704;52.532;6.426;2023-07-20T14:47:43;1.80;;;0.40;;
63005;SDS011;53704;52.532;6.426;2023-07-20T14:50:08;0.65;;;0.57;;
63005;SDS011;53704;52.532;6.426;2023-07-20T14:52:34;0.60;;;0.60;;
63005;SDS011;53704;52.532;6.426;2023-07-20T14:55:00;0.65;;;0.60;;
63005;SDS011;53704;52.532;6.426;2023-07-20T14:57:25;0.75;;;0.40;;
63005;SDS011;53704;52.532;6.426;2023-07-20T14:59:51;0.52;;;0.52;;
63005;SDS011;53704;52.532;6.426;2023-07-20T15:02:17;2.88;;;0.80;;
63005;SDS011;53704;52.532;6.426;2023-07-20T15:04:46;1.27;;;0.68;;
63005;SDS011;53704;52.532;6.426;2023-07-20T15:07:16;2.72;;;0.60;;